createdAt,value
2023-03-31T00:01:45.204Z,99588.44
2023-03-31T00:04:16.760Z,99587.47
2023-03-31T00:06:48.300Z,99515.50
2023-03-31T00:09:22.154Z,99590.19
2023-03-31T00:11:55.119Z,99576.44
2023-03-31T00:14:26.553Z,99581.69
2023-03-31T00:16:58.497Z,99501.66
2023-03-31T00:19:33.193Z,99573.56
2023-03-31T00:22:05.305Z,99565.59
2023-03-31T00:24:36.880Z,99532.00
2023-03-31T00:27:09.059Z,99489.44
2023-03-31T00:29:41.650Z,99565.59
2023-03-31T00:32:14.577Z,99492.88
2023-03-31T00:34:46.406Z,99524.78
2023-03-31T00:37:17.849Z,99549.03
2023-03-31T00:39:49.284Z,99555.72
2023-03-31T00:42:20.986Z,99541.25
2023-03-31T00:45:14.239Z,99560.88
2023-03-31T00:47:50.724Z,99548.16
2023-03-31T00:50:28.878Z,99478.31
2023-03-31T00:53:10.925Z,99560.50
2023-03-31T00:55:45.902Z,99475.84
2023-03-31T00:58:20.330Z,99533.44
2023-03-31T01:00:53.196Z,99533.81
2023-03-31T01:03:25.100Z,99530.72
2023-03-31T01:06:05.965Z,99503.25
2023-03-31T01:08:40.194Z,99524.50
2023-03-31T01:11:16.454Z,99504.94
2023-03-31T01:13:50.877Z,99528.69
2023-03-31T01:16:22.953Z,99471.84
2023-03-31T01:18:57.426Z,99494.47
2023-03-31T01:22:05.511Z,99508.47
2023-03-31T01:24:39.984Z,99503.47
2023-03-31T01:27:22.116Z,99498.31
2023-03-31T01:30:15.683Z,99494.97
2023-03-31T01:33:26.788Z,99476.09
2023-03-31T01:36:28.402Z,99471.84
2023-03-31T01:39:29.521Z,99483.16
2023-03-31T01:42:30.278Z,99483.25
2023-03-31T01:45:23.158Z,99492.13
2023-03-31T01:48:18.122Z,99424.38
2023-03-31T01:50:59.126Z,99460.06
2023-03-31T01:53:44.725Z,99452.19
2023-03-31T01:56:32.571Z,99458.13
2023-03-31T01:59:31.293Z,99460.06
2023-03-31T02:02:27.323Z,99453.19
2023-03-31T02:05:08.904Z,99430.75
2023-03-31T02:07:50.128Z,99403.91
2023-03-31T02:10:24.137Z,99355.56
2023-03-31T02:12:57.762Z,99352.06
2023-03-31T02:15:38.185Z,99355.56
2023-03-31T02:18:13.670Z,99411.84
2023-03-31T02:20:48.984Z,99417.13
2023-03-31T02:23:26.492Z,99412.81
2023-03-31T02:26:15.978Z,99412.72
2023-03-31T02:28:47.468Z,99407.34
2023-03-31T02:31:29.160Z,99317.63
2023-03-31T02:34:01.324Z,99399.84
2023-03-31T02:36:35.315Z,99388.09
2023-03-31T02:39:11.775Z,99406.94
2023-03-31T02:41:43.669Z,99408.47
2023-03-31T02:44:17.078Z,99351.94
2023-03-31T02:46:50.329Z,99402.97
2023-03-31T02:49:22.509Z,99350.91
2023-03-31T02:52:06.458Z,99388.38
2023-03-31T02:55:17.417Z,99373.88
2023-03-31T02:57:56.936Z,99368.19
2023-03-31T03:00:35.319Z,99374.19
2023-03-31T03:03:44.402Z,99344.53
2023-03-31T03:06:30.128Z,99338.38
2023-03-31T03:09:19.318Z,99357.41
2023-03-31T03:12:05.885Z,99284.84
2023-03-31T03:14:48.501Z,99313.38
2023-03-31T03:17:29.102Z,99267.25
2023-03-31T03:20:02.513Z,99316.66
2023-03-31T03:22:34.360Z,99307.41
2023-03-31T03:25:10.584Z,99274.81
2023-03-31T03:27:41.898Z,99353.72
2023-03-31T03:30:13.969Z,99263.56
2023-03-31T03:32:46.182Z,99332.22
2023-03-31T03:35:17.871Z,99336.97
2023-03-31T03:37:49.309Z,99302.00
2023-03-31T03:40:20.932Z,99330.94
2023-03-31T03:42:52.406Z,99336.88
2023-03-31T03:45:23.825Z,99342.53
2023-03-31T03:47:55.326Z,99326.75
2023-03-31T03:50:27.137Z,99317.88
2023-03-31T03:52:58.616Z,99306.34
2023-03-31T03:55:30.078Z,99306.94
2023-03-31T03:58:01.781Z,99301.50
2023-03-31T04:00:34.005Z,99277.19
2023-03-31T04:03:05.361Z,99308.34
2023-03-31T04:05:36.867Z,99307.34
2023-03-31T04:08:08.776Z,99304.53
2023-03-31T04:10:49.121Z,99265.25
2023-03-31T04:13:21.120Z,99247.06
2023-03-31T04:15:52.607Z,99284.13
2023-03-31T04:18:23.989Z,99228.63
2023-03-31T04:21:04.057Z,99289.81
2023-03-31T04:23:46.649Z,99281.81
2023-03-31T04:26:18.689Z,99280.03
2023-03-31T04:28:50.930Z,99273.78
2023-03-31T04:31:25.400Z,99254.81
2023-03-31T04:34:02.155Z,99257.34
2023-03-31T04:36:33.975Z,99227.81
2023-03-31T04:39:05.456Z,99258.13
2023-03-31T04:41:36.932Z,99263.19
2023-03-31T04:44:08.398Z,99237.94
2023-03-31T04:46:39.894Z,99193.63
2023-03-31T04:49:11.288Z,99251.47
2023-03-31T04:51:43.221Z,99197.66
2023-03-31T04:54:14.642Z,99195.13
2023-03-31T04:56:46.393Z,99136.91
2023-03-31T04:59:17.739Z,99178.44
2023-03-31T05:01:49.168Z,99202.38
2023-03-31T05:04:21.106Z,99191.06
2023-03-31T05:06:52.508Z,99192.91
2023-03-31T05:09:23.832Z,99196.63
2023-03-31T05:11:56.418Z,99192.28
2023-03-31T05:14:27.791Z,99181.94
2023-03-31T05:16:59.534Z,99188.97
2023-03-31T05:19:31.521Z,99154.16
2023-03-31T05:22:03.068Z,99194.47
2023-03-31T05:24:34.713Z,99176.38
2023-03-31T05:27:06.603Z,99198.66
2023-03-31T05:29:38.926Z,99183.03
2023-03-31T05:32:10.422Z,99170.03
2023-03-31T05:34:43.364Z,99162.28
2023-03-31T05:37:14.732Z,99158.16
2023-03-31T05:39:46.256Z,99144.97
2023-03-31T05:42:17.873Z,99152.47
2023-03-31T05:44:49.463Z,99150.47
2023-03-31T05:47:21.176Z,99159.38
2023-03-31T05:49:53.132Z,99153.00
2023-03-31T05:52:24.616Z,99090.69
2023-03-31T05:54:56.064Z,99131.03
2023-03-31T05:57:27.592Z,99095.44
2023-03-31T05:59:59.121Z,99110.88
2023-03-31T06:02:30.587Z,99139.06
2023-03-31T06:05:02.027Z,99149.16
2023-03-31T06:07:33.389Z,99133.56
2023-03-31T06:10:08.212Z,99106.44
2023-03-31T06:12:39.701Z,99131.25
2023-03-31T06:15:11.243Z,99090.25
2023-03-31T06:17:43.012Z,99134.78
2023-03-31T06:20:27.133Z,99108.47
2023-03-31T06:22:59.478Z,99133.09
2023-03-31T06:25:40.189Z,99124.63
2023-03-31T06:28:21.344Z,99068.00
2023-03-31T06:31:00.545Z,99150.81
2023-03-31T06:33:34.309Z,99097.63
2023-03-31T06:36:06.940Z,99092.31
2023-03-31T06:38:39.942Z,99127.78
2023-03-31T06:41:14.040Z,99079.31
2023-03-31T06:43:46.450Z,99125.63
2023-03-31T06:46:18.651Z,99077.22
2023-03-31T06:48:50.195Z,99130.50
2023-03-31T06:51:21.697Z,99102.94
2023-03-31T06:53:53.142Z,99137.69
2023-03-31T06:56:24.591Z,99130.50
2023-03-31T06:58:55.997Z,99121.88
2023-03-31T07:01:27.380Z,99102.84
2023-03-31T07:03:58.879Z,99097.38
2023-03-31T07:06:31.349Z,99114.69
2023-03-31T07:09:04.436Z,99107.81
2023-03-31T07:11:35.805Z,99107.25
2023-03-31T07:14:07.462Z,99089.22
2023-03-31T07:16:39.272Z,99094.16
2023-03-31T07:19:11.049Z,99017.53
2023-03-31T07:21:42.491Z,99095.19
2023-03-31T07:24:14.060Z,99089.00
2023-03-31T07:26:45.706Z,99081.97
2023-03-31T07:29:17.192Z,99039.88
2023-03-31T07:31:48.781Z,99062.44
2023-03-31T07:34:20.431Z,99013.53
2023-03-31T07:36:55.216Z,99070.97
2023-03-31T07:39:26.640Z,99075.97
2023-03-31T07:41:58.336Z,99084.78
2023-03-31T07:44:29.853Z,99083.53
2023-03-31T07:47:06.061Z,99058.25
2023-03-31T07:49:37.478Z,99083.38
2023-03-31T07:52:08.938Z,99072.13
2023-03-31T07:54:40.532Z,99071.47
2023-03-31T07:57:12.600Z,99057.53
2023-03-31T07:59:43.995Z,99051.78
2023-03-31T08:02:17.179Z,99045.88
2023-03-31T08:04:48.648Z,98973.25
2023-03-31T08:07:20.171Z,99025.63
2023-03-31T08:09:52.161Z,99034.06
2023-03-31T08:12:23.543Z,99043.53
2023-03-31T08:14:55.204Z,99019.28
2023-03-31T08:17:26.935Z,99004.09
2023-03-31T08:20:02.768Z,99034.31
2023-03-31T08:22:37.824Z,99034.75
2023-03-31T08:25:10.973Z,99014.66
2023-03-31T08:27:42.459Z,99030.38
2023-03-31T08:30:14.110Z,99015.38
2023-03-31T08:32:47.186Z,99017.88
2023-03-31T08:35:18.967Z,98977.72
2023-03-31T08:37:50.437Z,99005.44
2023-03-31T08:40:28.036Z,98981.13
2023-03-31T08:43:06.134Z,98979.88
2023-03-31T08:45:42.494Z,98973.00
2023-03-31T08:48:27.242Z,99021.50
2023-03-31T08:51:06.085Z,98908.16
2023-03-31T08:53:43.740Z,98986.59
2023-03-31T08:56:22.504Z,98988.63
2023-03-31T08:58:54.258Z,98999.19
2023-03-31T09:01:54.803Z,98998.47
2023-03-31T09:04:33.376Z,98990.25
2023-03-31T09:07:26.289Z,98976.41
2023-03-31T09:10:12.980Z,98989.13
2023-03-31T09:13:03.327Z,98981.47
2023-03-31T09:15:53.070Z,98979.75
2023-03-31T09:18:32.735Z,98960.50
2023-03-31T09:21:20.131Z,98964.84
2023-03-31T09:24:00.189Z,98921.78
2023-03-31T09:26:37.591Z,98964.00
2023-03-31T09:29:27.103Z,98906.09
2023-03-31T09:32:21.336Z,98892.88
2023-03-31T09:35:01.091Z,98902.50
2023-03-31T09:37:33.288Z,98932.41
2023-03-31T09:40:07.697Z,98945.72
2023-03-31T09:42:39.190Z,98926.91
2023-03-31T09:45:19.868Z,98850.69
2023-03-31T09:47:57.834Z,98914.94
2023-03-31T09:50:31.374Z,98905.19
2023-03-31T09:53:05.783Z,98897.00
2023-03-31T09:55:50.588Z,98923.97
2023-03-31T09:58:24.701Z,98898.88
2023-03-31T10:01:02.413Z,98911.91
2023-03-31T10:03:37.170Z,98845.28
2023-03-31T10:06:11.378Z,98829.78
2023-03-31T10:08:54.345Z,98903.72
2023-03-31T10:11:29.347Z,98906.22
2023-03-31T10:14:13.542Z,98826.81
2023-03-31T10:16:55.535Z,98890.88
2023-03-31T10:19:30.081Z,98821.88
2023-03-31T10:22:14.312Z,98856.84
2023-03-31T10:24:48.302Z,98892.19
2023-03-31T10:27:22.414Z,98903.94
2023-03-31T10:30:03.046Z,98878.00
2023-03-31T10:32:43.232Z,98883.25
2023-03-31T10:35:23.951Z,98891.53
2023-03-31T10:37:59.011Z,98864.25
2023-03-31T10:40:33.217Z,98857.47
2023-03-31T10:43:17.232Z,98859.09
2023-03-31T10:46:02.030Z,98876.34
2023-03-31T10:48:39.736Z,98867.28
2023-03-31T10:51:16.871Z,98877.94
2023-03-31T10:53:50.410Z,98854.28
2023-03-31T10:56:42.114Z,98865.53
2023-03-31T10:59:28.175Z,98869.50
2023-03-31T11:02:21.616Z,98868.53
2023-03-31T11:05:13.141Z,98822.78
2023-03-31T11:07:59.034Z,98856.69
2023-03-31T11:10:42.284Z,98822.09
2023-03-31T11:13:21.506Z,98847.94
2023-03-31T11:16:18.839Z,98843.19
2023-03-31T11:19:12.238Z,98786.81
2023-03-31T11:21:57.656Z,98833.75
2023-03-31T11:24:49.372Z,98844.78
2023-03-31T11:27:41.376Z,98839.78
2023-03-31T11:30:28.837Z,98841.00
2023-03-31T11:33:18.728Z,98847.44
2023-03-31T11:36:06.655Z,98794.66
2023-03-31T11:39:03.867Z,98821.44
2023-03-31T11:41:41.777Z,98807.53
2023-03-31T11:44:16.769Z,98807.69
2023-03-31T11:46:54.444Z,98799.28
2023-03-31T11:49:29.283Z,98784.47
2023-03-31T11:52:03.928Z,98760.53
2023-03-31T11:54:53.602Z,98813.19
2023-03-31T11:57:46.670Z,98799.59
2023-03-31T12:00:20.861Z,98740.28
2023-03-31T12:03:13.185Z,98794.50
2023-03-31T12:05:53.276Z,98795.88
2023-03-31T12:08:50.609Z,98784.34
2023-03-31T12:11:40.142Z,98807.19
2023-03-31T12:14:18.587Z,98709.91
2023-03-31T12:16:58.003Z,98767.63
2023-03-31T12:19:50.589Z,98784.91
2023-03-31T12:22:27.576Z,98793.97
2023-03-31T12:24:59.375Z,98772.44
2023-03-31T12:27:42.098Z,98769.38
2023-03-31T12:30:17.270Z,98727.56
2023-03-31T12:33:27.074Z,98773.09
2023-03-31T12:36:14.855Z,98777.53
2023-03-31T12:39:01.441Z,98766.88
2023-03-31T12:42:01.426Z,98774.03
2023-03-31T12:44:57.513Z,98774.75
2023-03-31T12:48:02.701Z,98729.16
2023-03-31T12:51:02.527Z,98769.09
2023-03-31T12:53:45.063Z,98744.97
2023-03-31T12:56:18.072Z,98736.00
2023-03-31T12:58:50.459Z,98746.34
2023-03-31T13:01:23.618Z,98700.72
2023-03-31T13:04:21.408Z,98755.13
2023-03-31T13:06:59.446Z,98742.94
2023-03-31T13:09:33.578Z,98747.31
2023-03-31T13:12:13.260Z,98744.34
2023-03-31T13:14:47.858Z,98730.84
2023-03-31T13:17:27.333Z,98744.22
2023-03-31T13:20:25.827Z,98729.16
2023-03-31T13:23:03.307Z,98721.00
2023-03-31T13:25:39.648Z,98653.44
2023-03-31T13:28:18.412Z,98682.94
2023-03-31T13:31:04.994Z,98668.59
2023-03-31T13:33:39.344Z,98721.38
2023-03-31T13:36:32.114Z,98716.44
2023-03-31T13:39:12.642Z,98733.25
2023-03-31T13:42:08.168Z,98719.78
2023-03-31T13:45:21.129Z,98717.34
2023-03-31T13:48:04.021Z,98664.44
2023-03-31T13:50:52.104Z,98692.56
2023-03-31T13:53:59.058Z,98648.72
2023-03-31T13:57:05.652Z,98717.25
2023-03-31T14:00:12.439Z,98717.78
2023-03-31T14:03:12.039Z,98714.47
2023-03-31T14:05:50.768Z,98695.97
2023-03-31T14:08:40.384Z,98719.47
2023-03-31T14:11:28.732Z,98719.03
2023-03-31T14:14:15.520Z,98705.44
2023-03-31T14:16:59.434Z,98667.47
2023-03-31T14:19:49.860Z,98715.34
2023-03-31T14:22:46.736Z,98695.00
2023-03-31T14:25:50.982Z,98625.28
2023-03-31T14:29:02.896Z,98706.78
2023-03-31T14:31:56.280Z,98641.28
2023-03-31T14:35:06.404Z,98684.41
2023-03-31T14:37:37.813Z,98691.47
2023-03-31T14:40:15.923Z,98657.00
2023-03-31T14:42:50.218Z,98638.72
2023-03-31T14:45:26.492Z,98697.16
2023-03-31T14:48:02.671Z,98692.03
2023-03-31T14:50:36.112Z,98695.25
2023-03-31T14:53:14.257Z,98696.41
2023-03-31T14:55:58.030Z,98691.19
2023-03-31T14:58:35.028Z,98705.03
2023-03-31T15:01:09.934Z,98686.28
2023-03-31T15:03:43.171Z,98698.91
2023-03-31T15:06:15.918Z,98702.34
2023-03-31T15:08:47.502Z,98707.91
2023-03-31T15:11:21.720Z,98685.44
2023-03-31T15:14:04.429Z,98693.63
2023-03-31T15:16:44.625Z,98689.22
2023-03-31T15:19:21.450Z,98618.03
2023-03-31T15:22:01.904Z,98692.41
2023-03-31T15:24:33.416Z,98689.66
2023-03-31T15:27:23.471Z,98687.94
2023-03-31T15:30:05.842Z,98637.72
2023-03-31T15:32:39.665Z,98678.91
2023-03-31T15:35:25.718Z,98617.66
2023-03-31T15:37:59.684Z,98615.03
2023-03-31T15:40:41.534Z,98677.25
2023-03-31T15:43:25.414Z,98700.09
2023-03-31T15:45:59.617Z,98683.34
2023-03-31T15:48:36.841Z,98650.63
2023-03-31T15:51:14.404Z,98693.44
2023-03-31T15:53:48.612Z,98697.53
2023-03-31T15:56:38.489Z,98614.47
2023-03-31T16:02:26.384Z,98608.75
2023-03-31T16:04:59.797Z,98675.13
2023-03-31T16:07:34.686Z,98673.78
2023-03-31T16:10:19.986Z,98633.63
2023-03-31T16:12:56.926Z,98672.41
2023-03-31T16:15:48.168Z,98667.72
2023-03-31T16:18:39.882Z,98680.16
2023-03-31T16:21:13.720Z,98684.72
2023-03-31T16:23:52.451Z,98655.19
2023-03-31T16:26:25.804Z,98686.56
2023-03-31T16:28:57.851Z,98688.25
2023-03-31T16:31:35.209Z,98711.69
2023-03-31T16:34:09.302Z,98697.78
2023-03-31T16:36:40.809Z,98695.41
2023-03-31T16:39:12.383Z,98674.63
2023-03-31T16:41:43.771Z,98689.66
2023-03-31T16:44:15.161Z,98702.25
2023-03-31T16:46:47.033Z,98706.06
2023-03-31T16:49:18.567Z,98706.19
2023-03-31T16:51:50.359Z,98713.13
2023-03-31T16:54:21.863Z,98685.69
2023-03-31T16:56:53.297Z,98697.13
2023-03-31T16:59:24.932Z,98706.75
2023-03-31T17:01:56.258Z,98635.31
2023-03-31T17:04:28.161Z,98698.31
2023-03-31T17:06:59.760Z,98686.72
2023-03-31T17:09:31.360Z,98690.63
2023-03-31T17:12:03.340Z,98707.69
2023-03-31T17:14:34.663Z,98703.41
2023-03-31T17:17:06.079Z,98685.81
2023-03-31T17:19:37.418Z,98682.88
2023-03-31T17:22:08.966Z,98703.31
2023-03-31T17:24:40.716Z,98703.03
2023-03-31T17:27:13.468Z,98700.66
2023-03-31T17:29:44.992Z,98709.06
2023-03-31T17:32:17.818Z,98715.25
2023-03-31T17:34:49.846Z,98706.00
2023-03-31T17:37:21.533Z,98702.19
2023-03-31T17:39:53.240Z,98728.38
2023-03-31T17:42:24.839Z,98702.31
2023-03-31T17:44:56.241Z,98708.59
2023-03-31T17:47:27.889Z,98720.38
2023-03-31T17:49:59.896Z,98639.31
2023-03-31T17:52:31.310Z,98710.81
2023-03-31T17:55:04.219Z,98647.78
2023-03-31T17:57:37.156Z,98709.06
2023-03-31T18:00:09.894Z,98665.81
2023-03-31T18:02:42.243Z,98648.59
2023-03-31T18:05:16.376Z,98717.13
2023-03-31T18:07:49.523Z,98727.09
2023-03-31T18:10:22.566Z,98718.31
2023-03-31T18:12:55.001Z,98720.03
2023-03-31T18:15:26.369Z,98705.38
2023-03-31T18:17:57.797Z,98720.88
2023-03-31T18:20:29.264Z,98725.56
2023-03-31T18:23:00.926Z,98728.84
2023-03-31T18:25:32.495Z,98722.38
2023-03-31T18:28:04.930Z,98726.13
2023-03-31T18:30:37.955Z,98732.69
2023-03-31T18:33:11.069Z,98723.25
2023-03-31T18:35:42.776Z,98705.53
2023-03-31T18:38:14.412Z,98757.44
2023-03-31T18:40:50.637Z,98739.41
2023-03-31T18:43:24.432Z,98755.81
2023-03-31T18:45:58.453Z,98756.97
2023-03-31T18:48:30.077Z,98747.53
2023-03-31T18:51:01.925Z,98716.53
2023-03-31T18:53:33.534Z,98730.19
2023-03-31T18:56:05.515Z,98743.16
2023-03-31T18:58:37.757Z,98752.84
2023-03-31T19:01:09.501Z,98757.84
2023-03-31T19:03:42.375Z,98740.97
2023-03-31T19:06:13.848Z,98739.09
2023-03-31T19:08:45.263Z,98740.97
2023-03-31T19:11:17.140Z,98672.34
2023-03-31T19:13:49.525Z,98744.88
2023-03-31T19:16:21.601Z,98759.00
2023-03-31T19:18:53.968Z,98709.41
2023-03-31T19:21:25.641Z,98757.97
2023-03-31T19:23:57.012Z,98712.84
2023-03-31T19:26:29.766Z,98765.44
2023-03-31T19:29:02.975Z,98745.97
2023-03-31T19:31:38.227Z,98757.28
2023-03-31T19:34:11.683Z,98744.81
2023-03-31T19:36:43.510Z,98749.41
2023-03-31T19:39:15.350Z,98760.84
2023-03-31T19:41:46.783Z,98746.31
2023-03-31T19:44:18.429Z,98743.00
2023-03-31T19:46:49.967Z,98752.75
2023-03-31T19:49:22.874Z,98740.31
2023-03-31T19:51:55.853Z,98744.59
2023-03-31T19:54:27.424Z,98738.28
2023-03-31T19:56:58.859Z,98702.81
2023-03-31T19:59:30.524Z,98751.56
2023-03-31T20:02:05.142Z,98750.41
2023-03-31T20:04:36.895Z,98760.56
2023-03-31T20:07:08.991Z,98746.53
2023-03-31T20:09:40.777Z,98751.69
2023-03-31T20:12:12.315Z,98752.25
2023-03-31T20:14:44.199Z,98742.34
2023-03-31T20:17:16.864Z,98751.00
2023-03-31T20:19:48.304Z,98748.44
2023-03-31T20:22:20.020Z,98757.66
2023-03-31T20:24:51.836Z,98740.09
2023-03-31T20:27:26.383Z,98731.72
2023-03-31T20:29:57.796Z,98746.03
2023-03-31T20:32:29.721Z,98753.59
2023-03-31T20:35:01.096Z,98738.28
2023-03-31T20:37:33.933Z,98733.00
2023-03-31T20:40:06.099Z,98732.75
2023-03-31T20:42:37.774Z,98752.81
2023-03-31T20:45:09.522Z,98748.44
2023-03-31T20:47:40.953Z,98744.25
2023-03-31T20:50:12.767Z,98758.59
2023-03-31T20:52:47.485Z,98730.66
2023-03-31T20:55:19.123Z,98738.63
2023-03-31T20:57:50.486Z,98744.56
2023-03-31T21:00:22.248Z,98741.97
2023-03-31T21:02:53.673Z,98740.25
2023-03-31T21:05:25.340Z,98729.88
2023-03-31T21:07:56.883Z,98744.72
2023-03-31T21:10:28.298Z,98739.47
2023-03-31T21:13:12.316Z,98688.19
2023-03-31T21:15:48.839Z,98763.69
2023-03-31T21:18:25.152Z,98674.28
2023-03-31T21:21:06.518Z,98691.47
2023-03-31T21:23:38.686Z,98747.38
2023-03-31T21:26:13.853Z,98691.47
2023-03-31T21:28:46.095Z,98730.19
2023-03-31T21:31:18.843Z,98677.72
2023-03-31T21:33:52.229Z,98753.31
2023-03-31T21:36:25.421Z,98700.91
2023-03-31T21:38:57.856Z,98743.84
2023-03-31T21:41:31.292Z,98692.63
2023-03-31T21:44:03.552Z,98758.84
2023-03-31T21:46:34.962Z,98758.13
2023-03-31T21:49:06.450Z,98747.81
2023-03-31T21:51:38.432Z,98748.28
2023-03-31T21:54:09.983Z,98760.38
2023-03-31T21:56:41.317Z,98764.59
2023-03-31T21:59:12.659Z,98776.84
2023-03-31T22:01:44.212Z,98765.06
2023-03-31T22:04:16.214Z,98763.25
2023-03-31T22:06:47.572Z,98767.72
2023-03-31T22:09:19.115Z,98748.59
2023-03-31T22:11:50.666Z,98764.28
2023-03-31T22:14:22.069Z,98781.59
2023-03-31T22:16:53.441Z,98774.59
2023-03-31T22:19:24.949Z,98743.50
2023-03-31T22:21:56.770Z,98732.41
2023-03-31T22:24:28.076Z,98761.53
2023-03-31T22:26:59.424Z,98768.50
2023-03-31T22:29:31.964Z,98761.53
2023-03-31T22:32:05.395Z,98765.91
2023-03-31T22:34:36.775Z,98774.72
2023-03-31T22:37:08.202Z,98698.94
2023-03-31T22:39:39.880Z,98772.78
2023-03-31T22:42:11.206Z,98777.94
2023-03-31T22:44:42.549Z,98773.88
2023-03-31T22:47:13.944Z,98711.06
2023-03-31T22:49:45.766Z,98783.31
2023-03-31T22:52:17.245Z,98711.06
2023-03-31T22:54:48.603Z,98776.53
2023-03-31T22:57:20.232Z,98778.25
2023-03-31T22:59:51.634Z,98776.75
2023-03-31T23:02:23.060Z,98746.84
2023-03-31T23:04:54.386Z,98787.38
2023-03-31T23:07:25.944Z,98775.81
2023-03-31T23:09:57.336Z,98771.03
2023-03-31T23:12:29.085Z,98781.28
2023-03-31T23:15:00.544Z,98776.19
2023-03-31T23:17:32.051Z,98776.50
2023-03-31T23:20:04.009Z,98773.06
2023-03-31T23:22:35.432Z,98775.63
2023-03-31T23:25:07.267Z,98778.91
2023-03-31T23:27:38.610Z,98771.47
2023-03-31T23:30:10.560Z,98778.22
2023-03-31T23:32:42.034Z,98722.53
2023-03-31T23:35:13.419Z,98788.75
2023-03-31T23:37:45.603Z,98799.78
2023-03-31T23:40:17.148Z,98786.31
2023-03-31T23:42:48.543Z,98778.66
2023-03-31T23:45:19.975Z,98806.00
2023-03-31T23:47:51.822Z,98725.25
2023-03-31T23:50:23.496Z,98787.97
2023-03-31T23:52:55.551Z,98769.47
2023-03-31T23:55:28.381Z,98755.66
2023-03-31T23:57:59.988Z,98752.44
